Terminal Aerodrome Forecast
Issued by NWS

Home | Current Version | Previous Version | Text Only | Print | Product List | Glossary On
Versions: 1 2 3 4 5 6 7 8 9 10 11 12 13 14 15
891
FTUS46 KPDT 050520
TAFPSC
TAF
KPSC 050520Z 0506/0606 21012KT P6SM SCT070 BKN100
     FM050900 VRB06KT P6SM BKN100
     FM051900 34006KT P6SM BKN100
     FM052200 33009KT P6SM VCSH BKN090=

USA.gov is the U.S. government's official web portal to all federal, state and local government web resources and services.